createdAt,value
2018-12-29T00:01:15.644Z,21.43
2018-12-29T00:03:46.445Z,21.73
2018-12-29T00:06:16.858Z,21.13
2018-12-29T00:08:47.308Z,22.20
2018-12-29T00:11:17.617Z,21.77
2018-12-29T00:13:48.475Z,21.87
2018-12-29T00:16:18.780Z,19.23
2018-12-29T00:18:50.596Z,21.67
2018-12-29T00:21:21.054Z,21.70
2018-12-29T00:23:51.659Z,21.70
2018-12-29T00:26:21.984Z,21.83
2018-12-29T00:28:52.491Z,21.03
2018-12-29T00:31:22.983Z,19.93
2018-12-29T00:33:53.464Z,20.10
2018-12-29T00:36:24.953Z,21.00
2018-12-29T00:38:55.307Z,21.70
2018-12-29T00:41:25.828Z,21.00
2018-12-29T00:43:56.483Z,21.10
2018-12-29T00:46:27.345Z,21.23
2018-12-29T00:48:58.185Z,20.17
2018-12-29T00:51:28.991Z,20.23
2018-12-29T00:53:59.464Z,19.03
2018-12-29T00:56:29.812Z,19.93
2018-12-29T00:59:00.303Z,21.27
2018-12-29T01:01:30.681Z,22.47
2018-12-29T01:04:00.977Z,21.87
2018-12-29T01:06:31.464Z,21.80
2018-12-29T01:09:02.717Z,23.33
2018-12-29T01:11:33.197Z,22.00
2018-12-29T01:14:03.631Z,23.37
2018-12-29T01:16:34.178Z,23.03
2018-12-29T01:19:05.363Z,23.40
2018-12-29T01:21:35.822Z,21.13
2018-12-29T01:24:06.784Z,23.00
2018-12-29T01:26:37.696Z,22.40
2018-12-29T01:29:08.287Z,22.40
2018-12-29T01:31:38.971Z,21.37
2018-12-29T01:34:09.364Z,22.93
2018-12-29T01:36:40.146Z,21.43
2018-12-29T01:39:11.010Z,22.23
2018-12-29T01:41:41.690Z,22.07
2018-12-29T01:44:12.171Z,21.73
2018-12-29T01:46:42.755Z,22.90
2018-12-29T01:49:13.619Z,23.33
2018-12-29T01:51:44.036Z,23.10
2018-12-29T01:54:14.508Z,23.27
2018-12-29T01:56:45.054Z,22.23
2018-12-29T01:59:15.409Z,21.87
2018-12-29T02:01:46.759Z,21.43
2018-12-29T02:04:17.076Z,21.63
2018-12-29T02:06:47.890Z,22.70
2018-12-29T02:09:18.321Z,22.07
2018-12-29T02:11:48.765Z,22.90
2018-12-29T02:14:19.683Z,22.37
2018-12-29T02:16:50.663Z,22.30
2018-12-29T02:19:21.015Z,22.63
2018-12-29T02:21:51.774Z,22.43
2018-12-29T02:24:22.148Z,21.23
2018-12-29T02:26:52.656Z,21.30
2018-12-29T02:29:23.648Z,22.10
2018-12-29T02:31:54.014Z,21.83
2018-12-29T02:34:24.360Z,22.13
2018-12-29T02:36:54.898Z,20.87
2018-12-29T02:39:25.411Z,22.27
2018-12-29T02:41:55.656Z,23.07
2018-12-29T02:44:26.410Z,22.07
2018-12-29T02:46:56.942Z,21.93
2018-12-29T02:49:27.464Z,21.27
2018-12-29T02:51:57.886Z,22.57
2018-12-29T02:54:28.536Z,21.97
2018-12-29T02:56:58.931Z,21.97
2018-12-29T02:59:29.497Z,21.43
2018-12-29T03:01:59.989Z,20.70
2018-12-29T03:04:30.323Z,21.80
2018-12-29T03:07:00.706Z,21.40
2018-12-29T03:09:31.079Z,21.73
2018-12-29T03:12:01.958Z,23.10
2018-12-29T03:14:32.234Z,20.27
2018-12-29T03:17:02.998Z,21.83
2018-12-29T03:19:33.590Z,21.10
2018-12-29T03:22:04.455Z,20.53
2018-12-29T03:24:35.140Z,19.33
2018-12-29T03:27:05.592Z,20.57
2018-12-29T03:29:35.955Z,21.07
2018-12-29T03:32:06.397Z,20.77
2018-12-29T03:34:36.660Z,20.57
2018-12-29T03:37:06.936Z,18.80
2018-12-29T03:39:37.688Z,21.73
2018-12-29T03:42:08.662Z,19.80
2018-12-29T03:44:39.079Z,21.37
2018-12-29T03:47:09.356Z,20.33
2018-12-29T03:49:39.990Z,21.27
2018-12-29T03:52:10.614Z,18.77
2018-12-29T03:54:41.296Z,20.73
2018-12-29T03:57:11.637Z,20.77
2018-12-29T03:59:42.049Z,20.53
2018-12-29T04:02:12.269Z,20.47
2018-12-29T04:04:42.500Z,20.33
2018-12-29T04:07:12.932Z,21.30
2018-12-29T04:09:43.263Z,20.83
2018-12-29T04:12:27.846Z,20.97
2018-12-29T04:14:58.239Z,21.63
2018-12-29T04:17:29.003Z,20.40
2018-12-29T04:19:59.293Z,20.23
2018-12-29T04:22:30.512Z,20.77
2018-12-29T04:25:00.755Z,19.67
2018-12-29T04:27:31.845Z,21.13
2018-12-29T04:30:02.183Z,19.33
2018-12-29T04:32:32.435Z,21.43
2018-12-29T04:35:02.871Z,19.93
2018-12-29T04:37:33.835Z,19.77
2018-12-29T04:40:04.771Z,18.50
2018-12-29T04:42:35.060Z,18.17
2018-12-29T04:45:05.483Z,19.27
2018-12-29T04:47:35.830Z,19.87
2018-12-29T04:50:06.922Z,18.50
2018-12-29T04:52:37.216Z,18.80
2018-12-29T04:55:07.921Z,20.17
2018-12-29T04:57:38.161Z,20.77
2018-12-29T05:00:09.758Z,20.40
2018-12-29T05:02:40.105Z,20.33
2018-12-29T05:05:10.657Z,19.90
2018-12-29T05:07:41.816Z,19.97
2018-12-29T05:10:12.515Z,19.90
2018-12-29T05:12:42.921Z,21.43
2018-12-29T05:15:13.219Z,19.70
2018-12-29T05:17:43.588Z,21.27
2018-12-29T05:20:14.833Z,19.93
2018-12-29T05:22:45.555Z,18.03
2018-12-29T05:25:15.942Z,17.93
2018-12-29T05:27:46.314Z,19.80
2018-12-29T05:30:16.524Z,18.70
2018-12-29T05:32:46.974Z,19.57
2018-12-29T05:35:17.215Z,18.87
2018-12-29T05:37:47.673Z,17.47
2018-12-29T05:40:18.214Z,18.43
2018-12-29T05:42:48.605Z,19.30
2018-12-29T05:45:19.256Z,17.63
2018-12-29T05:47:49.839Z,18.17
2018-12-29T05:50:20.183Z,17.37
2018-12-29T05:52:50.426Z,17.53
2018-12-29T05:55:20.941Z,18.00
2018-12-29T05:57:51.344Z,16.67
2018-12-29T06:00:21.661Z,17.13
2018-12-29T06:02:52.142Z,17.80
2018-12-29T06:05:22.671Z,17.33
2018-12-29T06:07:52.992Z,17.93
2018-12-29T06:10:23.423Z,16.97
2018-12-29T06:12:53.939Z,17.67
2018-12-29T06:15:24.200Z,16.47
2018-12-29T06:17:54.546Z,17.40
2018-12-29T06:20:25.026Z,18.00
2018-12-29T06:22:55.557Z,17.10
2018-12-29T06:25:26.225Z,17.17
2018-12-29T06:27:57.297Z,16.53
2018-12-29T06:30:27.884Z,16.93
2018-12-29T06:32:58.385Z,17.50
2018-12-29T06:35:28.887Z,18.43
2018-12-29T06:37:59.170Z,19.23
2018-12-29T06:40:29.927Z,20.13
2018-12-29T06:43:00.174Z,17.97
2018-12-29T06:45:30.488Z,18.50
2018-12-29T06:48:01.341Z,17.73
2018-12-29T06:50:31.938Z,17.20
2018-12-29T06:53:02.198Z,18.13
2018-12-29T06:55:34.900Z,17.70
2018-12-29T06:58:05.230Z,16.73
2018-12-29T07:00:35.651Z,17.30
2018-12-29T07:03:06.379Z,17.57
2018-12-29T07:05:36.962Z,17.70
2018-12-29T07:08:07.545Z,17.13
2018-12-29T07:10:38.035Z,18.23
2018-12-29T07:13:08.851Z,18.47
2018-12-29T07:15:39.473Z,18.23
2018-12-29T07:18:10.392Z,16.83
2018-12-29T07:20:41.233Z,18.33
2018-12-29T07:23:11.804Z,18.47
2018-12-29T07:27:06.175Z,18.53
2018-12-29T07:29:38.303Z,17.53
2018-12-29T07:32:08.774Z,19.87
2018-12-29T07:34:39.391Z,19.37
2018-12-29T07:37:09.986Z,20.27
2018-12-29T07:39:40.685Z,20.10
2018-12-29T07:42:11.061Z,20.17
2018-12-29T07:45:21.351Z,19.97
2018-12-29T07:47:52.035Z,18.43
2018-12-29T07:50:22.953Z,19.87
2018-12-29T07:52:53.478Z,19.97
2018-12-29T07:55:23.904Z,21.73
2018-12-29T07:57:54.168Z,22.03
2018-12-29T08:00:24.568Z,23.33
2018-12-29T08:02:55.095Z,20.77
2018-12-29T08:05:25.549Z,22.50
2018-12-29T08:07:57.322Z,20.37
2018-12-29T08:10:28.342Z,20.60
2018-12-29T08:12:59.077Z,21.70
2018-12-29T08:15:29.538Z,20.67
2018-12-29T08:17:59.980Z,22.53
2018-12-29T08:20:30.465Z,22.87
2018-12-29T08:23:00.809Z,21.73
2018-12-29T08:25:31.898Z,20.03
2018-12-29T08:28:02.331Z,21.17
2018-12-29T08:30:32.617Z,22.00
2018-12-29T08:33:03.273Z,21.90
2018-12-29T08:35:34.715Z,20.50
2018-12-29T08:38:05.054Z,21.23
2018-12-29T08:40:35.547Z,21.43
2018-12-29T08:43:06.039Z,21.30
2018-12-29T08:45:36.520Z,22.37
2018-12-29T08:48:07.315Z,22.63
2018-12-29T08:50:37.978Z,21.97
2018-12-29T08:53:08.739Z,22.33
2018-12-29T08:55:42.122Z,22.43
2018-12-29T08:58:12.618Z,23.13
2018-12-29T09:01:02.568Z,23.60
2018-12-29T09:03:33.360Z,22.07
2018-12-29T09:06:03.800Z,22.57
2018-12-29T09:08:34.509Z,22.47
2018-12-29T09:11:05.433Z,21.10
2018-12-29T09:13:35.978Z,20.57
2018-12-29T09:16:06.589Z,21.87
2018-12-29T09:18:36.857Z,21.03
2018-12-29T09:21:07.442Z,21.23
2018-12-29T09:23:38.146Z,20.90
2018-12-29T09:26:09.139Z,20.27
2018-12-29T09:28:40.017Z,20.77
2018-12-29T09:31:10.750Z,20.43
2018-12-29T09:33:41.348Z,20.27
2018-12-29T09:36:11.883Z,20.60
2018-12-29T09:38:42.325Z,20.77
2018-12-29T09:41:13.139Z,20.77
2018-12-29T09:43:43.674Z,18.67
2018-12-29T09:46:14.119Z,19.00
2018-12-29T09:48:44.721Z,19.53
2018-12-29T09:51:15.178Z,20.53
2018-12-29T09:53:45.419Z,19.80
2018-12-29T09:56:16.163Z,19.30
2018-12-29T09:58:46.510Z,19.53
2018-12-29T10:01:17.262Z,19.03
2018-12-29T10:03:48.086Z,20.67
2018-12-29T10:06:18.603Z,21.30
2018-12-29T10:08:49.155Z,21.13
2018-12-29T10:11:19.574Z,20.67
2018-12-29T10:13:50.094Z,20.97
2018-12-29T10:16:20.698Z,18.80
2018-12-29T10:18:51.458Z,20.87
2018-12-29T10:21:21.970Z,20.70
2018-12-29T10:23:52.344Z,19.93
2018-12-29T10:26:23.139Z,20.27
2018-12-29T10:28:53.534Z,20.83
2018-12-29T10:31:23.872Z,21.17
2018-12-29T10:33:55.406Z,20.13
2018-12-29T10:36:25.763Z,19.33
2018-12-29T10:38:56.217Z,20.33
2018-12-29T10:41:26.606Z,19.80
2018-12-29T10:43:57.055Z,20.50
2018-12-29T10:46:27.753Z,20.87
2018-12-29T10:48:58.144Z,19.93
2018-12-29T10:51:28.414Z,19.97
2018-12-29T10:53:58.937Z,21.27
2018-12-29T10:56:29.601Z,20.20
2018-12-29T10:58:59.908Z,20.40
2018-12-29T11:01:30.291Z,19.37
2018-12-29T11:04:00.897Z,21.37
2018-12-29T11:06:31.107Z,19.73
2018-12-29T11:09:01.712Z,21.07
2018-12-29T11:11:32.340Z,20.70
2018-12-29T11:14:02.692Z,22.07
2018-12-29T11:16:35.101Z,21.17
2018-12-29T11:19:05.711Z,20.80
2018-12-29T11:21:36.239Z,19.43
2018-12-29T11:24:07.293Z,21.07
2018-12-29T11:26:37.625Z,21.03
2018-12-29T11:29:08.340Z,19.93
2018-12-29T11:31:38.703Z,20.47
2018-12-29T11:34:09.364Z,22.37
2018-12-29T11:36:40.099Z,22.60
2018-12-29T11:39:10.319Z,22.03
2018-12-29T11:41:41.213Z,21.60
2018-12-29T11:44:11.504Z,20.87
2018-12-29T11:46:41.804Z,21.53
2018-12-29T11:49:18.038Z,21.90
2018-12-29T11:51:44.610Z,20.73
2018-12-29T11:54:14.904Z,21.67
2018-12-29T11:56:45.281Z,21.27
2018-12-29T11:59:15.663Z,22.20
2018-12-29T12:01:46.230Z,20.87
2018-12-29T12:04:16.649Z,21.73
2018-12-29T12:06:47.059Z,21.40
2018-12-29T12:09:17.805Z,21.20
2018-12-29T12:11:48.188Z,21.53
2018-12-29T12:14:19.876Z,20.30
2018-12-29T12:16:50.175Z,21.63
2018-12-29T12:19:21.133Z,21.13
2018-12-29T12:21:51.518Z,22.37
2018-12-29T12:24:21.936Z,21.37
2018-12-29T12:26:52.268Z,22.23
2018-12-29T12:29:22.669Z,21.37
2018-12-29T12:31:52.852Z,21.23
2018-12-29T12:34:23.329Z,21.10
2018-12-29T12:36:53.638Z,20.33
2018-12-29T12:39:24.140Z,21.20
2018-12-29T12:41:54.581Z,20.97
2018-12-29T12:44:25.017Z,21.17
2018-12-29T12:46:55.302Z,20.57
2018-12-29T12:49:25.940Z,19.77
2018-12-29T12:51:56.296Z,21.20
2018-12-29T12:54:26.786Z,20.03
2018-12-29T12:56:57.040Z,20.63
2018-12-29T12:59:27.644Z,20.50
2018-12-29T13:01:58.142Z,20.37
2018-12-29T13:04:28.569Z,20.17
2018-12-29T13:06:59.348Z,20.63
2018-12-29T13:09:29.595Z,20.77
2018-12-29T13:12:00.084Z,21.37
2018-12-29T13:14:30.359Z,21.83
2018-12-29T13:17:00.745Z,21.67
2018-12-29T13:19:31.053Z,20.57
2018-12-29T13:22:01.283Z,21.03
2018-12-29T13:24:31.701Z,19.20
2018-12-29T13:27:02.031Z,20.03
2018-12-29T13:29:32.630Z,19.93
2018-12-29T13:32:03.083Z,21.17
2018-12-29T13:34:33.455Z,22.30
2018-12-29T13:37:03.773Z,20.30
2018-12-29T13:39:34.429Z,22.10
2018-12-29T13:42:04.712Z,21.50
2018-12-29T13:44:35.061Z,21.30
2018-12-29T13:47:05.779Z,19.67
2018-12-29T13:49:36.064Z,20.83
2018-12-29T13:52:06.449Z,20.63
2018-12-29T13:54:36.671Z,21.03
2018-12-29T13:57:06.937Z,21.63
2018-12-29T13:59:37.301Z,22.03
2018-12-29T14:02:08.028Z,23.37
2018-12-29T14:04:38.388Z,21.93
2018-12-29T14:07:08.607Z,22.00
2018-12-29T14:09:38.839Z,22.37
2018-12-29T14:12:09.148Z,22.33
2018-12-29T14:14:39.465Z,22.30
2018-12-29T14:17:09.823Z,22.47
2018-12-29T14:19:40.279Z,22.87
2018-12-29T14:22:10.815Z,24.67
2018-12-29T14:24:41.424Z,22.33
2018-12-29T14:27:11.895Z,22.67
2018-12-29T14:29:42.229Z,21.90
2018-12-29T14:32:12.583Z,23.67
2018-12-29T14:34:42.822Z,24.50
2018-12-29T14:37:13.063Z,22.50
2018-12-29T14:39:43.316Z,24.13
2018-12-29T14:42:13.948Z,24.30
2018-12-29T14:44:44.175Z,24.00
2018-12-29T14:47:14.576Z,23.50
2018-12-29T14:49:44.960Z,24.93
2018-12-29T14:52:15.282Z,23.63
2018-12-29T14:54:45.759Z,22.70
2018-12-29T14:57:36.048Z,23.23
2018-12-29T15:00:06.701Z,24.30
2018-12-29T15:02:37.013Z,24.37
2018-12-29T15:05:07.451Z,24.20
2018-12-29T15:07:38.359Z,23.27
2018-12-29T15:10:09.018Z,24.07
2018-12-29T15:12:39.307Z,23.63
2018-12-29T15:15:09.985Z,24.23
2018-12-29T15:17:40.625Z,22.13
2018-12-29T15:20:11.340Z,21.67
2018-12-29T15:22:41.834Z,22.20
2018-12-29T15:25:12.361Z,23.90
2018-12-29T15:27:43.548Z,24.17
2018-12-29T15:30:13.919Z,22.23
2018-12-29T15:32:44.384Z,22.93
2018-12-29T15:35:15.244Z,24.77
2018-12-29T15:37:45.417Z,23.43
2018-12-29T15:40:16.088Z,22.87
2018-12-29T15:42:46.525Z,23.03
2018-12-29T15:45:16.913Z,22.30
2018-12-29T15:47:47.546Z,22.83
2018-12-29T15:50:18.180Z,22.73
2018-12-29T15:52:48.970Z,23.27
2018-12-29T15:55:19.402Z,23.27
2018-12-29T15:57:49.942Z,23.67
2018-12-29T16:00:20.543Z,23.47
2018-12-29T16:02:51.347Z,23.33
2018-12-29T16:05:21.554Z,22.33
2018-12-29T16:07:52.193Z,23.13
2018-12-29T16:10:22.471Z,24.67
2018-12-29T16:12:52.931Z,25.67
2018-12-29T16:15:23.681Z,26.27
2018-12-29T16:17:54.036Z,24.83
2018-12-29T16:20:24.266Z,25.40
2018-12-29T16:22:54.845Z,24.30
2018-12-29T16:25:25.367Z,23.87
2018-12-29T16:27:55.690Z,24.50
2018-12-29T16:30:26.391Z,23.50
2018-12-29T16:32:57.087Z,24.17
2018-12-29T16:35:27.368Z,24.03
2018-12-29T16:37:58.095Z,22.67
2018-12-29T16:40:28.467Z,23.00
2018-12-29T16:42:58.830Z,21.63
2018-12-29T16:45:30.162Z,23.23
2018-12-29T16:48:00.624Z,23.97
2018-12-29T16:50:31.311Z,22.47
2018-12-29T16:53:01.689Z,21.37
2018-12-29T16:55:32.061Z,22.03
2018-12-29T16:58:02.568Z,24.33
2018-12-29T17:00:32.827Z,23.87
2018-12-29T17:03:03.141Z,24.03
2018-12-29T17:05:33.432Z,23.13
2018-12-29T17:08:06.744Z,23.73
2018-12-29T17:10:37.053Z,25.57
2018-12-29T17:13:07.306Z,26.47
2018-12-29T17:15:38.270Z,23.80
2018-12-29T17:18:10.403Z,25.57
2018-12-29T17:20:41.097Z,25.07
2018-12-29T17:23:12.501Z,24.93
2018-12-29T17:25:43.338Z,24.00
2018-12-29T17:28:13.604Z,22.17
2018-12-29T17:30:44.592Z,21.63
2018-12-29T17:33:14.986Z,21.50
2018-12-29T17:35:45.324Z,23.50
2018-12-29T17:38:15.947Z,22.03
2018-12-29T17:40:46.194Z,22.50
2018-12-29T17:43:16.644Z,23.13
2018-12-29T17:45:46.848Z,23.67
2018-12-29T17:48:17.160Z,23.40
2018-12-29T17:50:47.488Z,22.10
2018-12-29T17:53:18.236Z,21.47
2018-12-29T17:55:48.489Z,22.27
2018-12-29T17:58:18.901Z,23.33
2018-12-29T18:00:49.601Z,21.60
2018-12-29T18:03:19.924Z,24.00
2018-12-29T18:05:50.607Z,26.33
2018-12-29T18:08:20.775Z,27.70
2018-12-29T18:10:51.303Z,23.77
2018-12-29T18:13:21.991Z,25.20
2018-12-29T18:15:52.495Z,23.67
2018-12-29T18:18:22.945Z,22.47
2018-12-29T18:20:53.245Z,24.10
2018-12-29T18:23:23.618Z,23.00
2018-12-29T18:25:53.802Z,21.73
2018-12-29T18:28:24.153Z,21.90
2018-12-29T18:30:54.531Z,22.57
2018-12-29T18:33:24.768Z,22.97
2018-12-29T18:35:55.379Z,21.10
2018-12-29T18:38:26.083Z,21.93
2018-12-29T18:40:56.299Z,22.57
2018-12-29T18:43:26.652Z,22.23
2018-12-29T18:45:57.024Z,21.73
2018-12-29T18:48:27.330Z,22.37
2018-12-29T18:50:57.937Z,21.60
2018-12-29T18:53:28.567Z,21.53
2018-12-29T18:55:58.935Z,24.20
2018-12-29T18:58:29.184Z,23.80
2018-12-29T19:00:59.674Z,24.50
2018-12-29T19:03:29.963Z,25.20
2018-12-29T19:06:01.106Z,22.37
2018-12-29T19:08:31.399Z,25.00
2018-12-29T19:11:01.867Z,24.60
2018-12-29T19:13:32.197Z,22.77
2018-12-29T19:16:02.776Z,22.53
2018-12-29T19:18:33.216Z,22.20
2018-12-29T19:21:03.399Z,23.47
2018-12-29T19:23:34.161Z,21.30
2018-12-29T19:26:05.963Z,20.60
2018-12-29T19:28:36.628Z,20.50
2018-12-29T19:31:07.357Z,22.13
2018-12-29T19:33:38.402Z,21.97
2018-12-29T19:36:08.995Z,22.10
2018-12-29T19:38:39.320Z,22.37
2018-12-29T19:41:10.193Z,21.53
2018-12-29T19:43:40.943Z,21.80
2018-12-29T19:46:11.813Z,21.63
2018-12-29T19:48:42.257Z,22.57
2018-12-29T19:51:12.620Z,22.00
2018-12-29T19:53:43.197Z,22.07
2018-12-29T19:56:13.557Z,21.60
2018-12-29T19:58:43.907Z,21.63
2018-12-29T20:01:14.373Z,21.30
2018-12-29T20:03:44.729Z,21.20
2018-12-29T20:06:15.398Z,21.63
2018-12-29T20:08:45.758Z,23.77
2018-12-29T20:11:16.082Z,23.57
2018-12-29T20:13:46.538Z,23.87
2018-12-29T20:16:16.787Z,23.50
2018-12-29T20:18:47.488Z,23.67
2018-12-29T20:21:17.730Z,24.33
2018-12-29T20:23:48.043Z,24.50
2018-12-29T20:26:18.631Z,24.93
2018-12-29T20:28:49.246Z,26.00
2018-12-29T20:31:19.762Z,25.63
2018-12-29T20:33:50.043Z,26.30
2018-12-29T20:36:20.600Z,25.70
2018-12-29T20:38:51.003Z,25.80
2018-12-29T20:41:21.761Z,25.17
2018-12-29T20:43:52.073Z,24.17
2018-12-29T20:46:22.372Z,25.03
2018-12-29T20:48:52.759Z,24.10
2018-12-29T20:51:23.025Z,24.80
2018-12-29T20:53:53.687Z,23.87
2018-12-29T20:56:24.109Z,25.00
2018-12-29T20:58:54.880Z,24.23
2018-12-29T21:01:25.744Z,26.20
2018-12-29T21:03:56.185Z,25.23
2018-12-29T21:06:26.731Z,27.73
2018-12-29T21:08:56.940Z,25.67
2018-12-29T21:11:27.329Z,25.07
2018-12-29T21:13:57.671Z,26.13
2018-12-29T21:17:26.318Z,29.30
2018-12-29T21:19:57.357Z,24.07
2018-12-29T21:22:27.596Z,23.97
2018-12-29T21:24:58.077Z,24.00
2018-12-29T21:27:28.357Z,25.17
2018-12-29T21:29:58.788Z,24.93
2018-12-29T21:32:29.928Z,24.27
2018-12-29T21:35:00.245Z,23.53
2018-12-29T21:37:30.544Z,23.20
2018-12-29T21:40:00.922Z,23.53
2018-12-29T21:42:31.124Z,23.40
2018-12-29T21:45:03.890Z,22.40
2018-12-29T21:47:33.815Z,22.30
2018-12-29T21:50:04.248Z,25.07
2018-12-29T21:52:34.435Z,23.53
2018-12-29T21:55:04.882Z,24.43
2018-12-29T21:57:35.264Z,25.37
2018-12-29T22:00:06.449Z,25.23
2018-12-29T22:02:36.705Z,24.17
2018-12-29T22:05:07.157Z,23.80
2018-12-29T22:07:37.620Z,24.77
2018-12-29T22:10:08.624Z,26.03
2018-12-29T22:12:39.347Z,25.43
2018-12-29T22:15:09.737Z,26.47
2018-12-29T22:17:40.243Z,25.60
2018-12-29T22:20:10.804Z,24.90
2018-12-29T22:22:41.072Z,26.93
2018-12-29T22:25:11.378Z,27.17
2018-12-29T22:27:42.119Z,23.87
2018-12-29T22:30:12.713Z,25.30
2018-12-29T22:32:43.308Z,25.87
2018-12-29T22:35:13.934Z,25.93
2018-12-29T22:38:21.221Z,22.97
2018-12-29T22:40:51.388Z,22.93
2018-12-29T22:43:21.605Z,25.03
2018-12-29T22:45:51.950Z,25.60
2018-12-29T22:48:22.173Z,23.20
2018-12-29T22:50:52.732Z,25.27
2018-12-29T22:53:23.250Z,24.50
2018-12-29T22:55:53.668Z,24.63
2018-12-29T22:58:24.620Z,24.27
2018-12-29T23:00:55.200Z,23.20
2018-12-29T23:03:25.604Z,22.07
2018-12-29T23:05:55.850Z,22.00
2018-12-29T23:08:26.452Z,21.87
2018-12-29T23:10:56.960Z,20.80
2018-12-29T23:13:27.339Z,20.33
2018-12-29T23:15:57.592Z,20.27
2018-12-29T23:18:27.778Z,20.57
2018-12-29T23:20:58.107Z,19.23
2018-12-29T23:23:28.859Z,19.90
2018-12-29T23:25:59.426Z,19.13
2018-12-29T23:28:29.657Z,20.97
2018-12-29T23:31:00.581Z,18.87
2018-12-29T23:33:30.927Z,19.47
2018-12-29T23:36:01.174Z,20.63
2018-12-29T23:38:31.330Z,17.73
2018-12-29T23:41:01.646Z,16.47
2018-12-29T23:43:31.824Z,18.77
2018-12-29T23:46:02.080Z,18.03
2018-12-29T23:48:32.371Z,18.77
2018-12-29T23:51:05.602Z,17.63
2018-12-29T23:53:34.988Z,18.07
2018-12-29T23:56:05.818Z,19.33
2018-12-29T23:58:36.056Z,18.20
